sensor_id;sensor_type;location;lat;lon;timestamp;P1;durP1;ratioP1;P2;durP2;ratioP2
31770;SDS011;18343;50.152;8.182;2022-08-14T00:00:19;6.57;;;4.32;;
31770;SDS011;18343;50.152;8.182;2022-08-14T00:02:47;5.20;;;4.70;;
31770;SDS011;18343;50.152;8.182;2022-08-14T00:05:14;5.68;;;4.88;;
31770;SDS011;18343;50.152;8.182;2022-08-14T00:07:45;6.20;;;4.90;;
31770;SDS011;18343;50.152;8.182;2022-08-14T00:10:14;7.43;;;5.07;;
31770;SDS011;18343;50.152;8.182;2022-08-14T00:12:45;5.55;;;4.95;;
31770;SDS011;18343;50.152;8.182;2022-08-14T00:15:15;7.70;;;4.82;;
31770;SDS011;18343;50.152;8.182;2022-08-14T00:17:46;7.50;;;4.63;;
31770;SDS011;18343;50.152;8.182;2022-08-14T00:20:15;6.45;;;5.20;;
31770;SDS011;18343;50.152;8.182;2022-08-14T00:22:45;6.22;;;4.82;;
31770;SDS011;18343;50.152;8.182;2022-08-14T00:25:12;5.30;;;4.80;;
31770;SDS011;18343;50.152;8.182;2022-08-14T00:27:39;7.05;;;4.82;;
31770;SDS011;18343;50.152;8.182;2022-08-14T00:30:06;7.10;;;5.28;;
31770;SDS011;18343;50.152;8.182;2022-08-14T00:32:36;5.72;;;5.13;;
31770;SDS011;18343;50.152;8.182;2022-08-14T00:35:05;5.63;;;5.00;;
31770;SDS011;18343;50.152;8.182;2022-08-14T00:37:34;6.95;;;5.60;;
31770;SDS011;18343;50.152;8.182;2022-08-14T00:40:04;6.38;;;5.68;;
31770;SDS011;18343;50.152;8.182;2022-08-14T00:42:34;6.90;;;6.20;;
31770;SDS011;18343;50.152;8.182;2022-08-14T00:45:01;6.35;;;5.70;;
31770;SDS011;18343;50.152;8.182;2022-08-14T00:47:28;6.20;;;5.57;;
31770;SDS011;18343;50.152;8.182;2022-08-14T00:49:55;9.55;;;6.05;;
31770;SDS011;18343;50.152;8.182;2022-08-14T00:52:22;6.95;;;6.25;;
31770;SDS011;18343;50.152;8.182;2022-08-14T00:54:51;8.88;;;6.45;;
31770;SDS011;18343;50.152;8.182;2022-08-14T00:57:18;6.45;;;5.85;;
31770;SDS011;18343;50.152;8.182;2022-08-14T00:59:47;7.80;;;6.20;;
31770;SDS011;18343;50.152;8.182;2022-08-14T01:02:15;9.75;;;6.55;;
31770;SDS011;18343;50.152;8.182;2022-08-14T01:04:49;8.65;;;7.15;;
31770;SDS011;18343;50.152;8.182;2022-08-14T01:07:18;7.60;;;6.80;;
31770;SDS011;18343;50.152;8.182;2022-08-14T01:09:47;7.80;;;6.22;;
31770;SDS011;18343;50.152;8.182;2022-08-14T01:12:16;14.82;;;6.78;;
31770;SDS011;18343;50.152;8.182;2022-08-14T01:14:46;8.10;;;6.90;;
31770;SDS011;18343;50.152;8.182;2022-08-14T01:17:16;8.80;;;6.65;;
31770;SDS011;18343;50.152;8.182;2022-08-14T01:19:43;7.32;;;6.63;;
31770;SDS011;18343;50.152;8.182;2022-08-14T01:22:29;7.30;;;6.60;;
31770;SDS011;18343;50.152;8.182;2022-08-14T01:24:56;11.02;;;6.72;;
31770;SDS011;18343;50.152;8.182;2022-08-14T01:27:23;8.77;;;7.25;;
31770;SDS011;18343;50.152;8.182;2022-08-14T01:29:53;10.63;;;7.13;;
31770;SDS011;18343;50.152;8.182;2022-08-14T01:32:22;7.88;;;6.78;;
31770;SDS011;18343;50.152;8.182;2022-08-14T01:34:49;6.57;;;5.95;;
31770;SDS011;18343;50.152;8.182;2022-08-14T01:37:20;6.60;;;6.00;;
31770;SDS011;18343;50.152;8.182;2022-08-14T01:39:48;7.53;;;6.72;;
31770;SDS011;18343;50.152;8.182;2022-08-14T01:42:16;10.40;;;6.68;;
31770;SDS011;18343;50.152;8.182;2022-08-14T01:44:44;7.05;;;6.35;;
31770;SDS011;18343;50.152;8.182;2022-08-14T01:47:15;7.18;;;6.45;;
31770;SDS011;18343;50.152;8.182;2022-08-14T01:49:45;8.98;;;6.82;;
31770;SDS011;18343;50.152;8.182;2022-08-14T01:52:14;7.47;;;6.78;;
31770;SDS011;18343;50.152;8.182;2022-08-14T01:54:42;7.15;;;6.47;;
31770;SDS011;18343;50.152;8.182;2022-08-14T01:57:09;8.10;;;6.47;;
31770;SDS011;18343;50.152;8.182;2022-08-14T01:59:37;6.47;;;5.88;;
31770;SDS011;18343;50.152;8.182;2022-08-14T02:02:08;7.15;;;6.45;;
31770;SDS011;18343;50.152;8.182;2022-08-14T02:04:38;7.72;;;6.93;;
31770;SDS011;18343;50.152;8.182;2022-08-14T02:07:05;7.22;;;6.60;;
31770;SDS011;18343;50.152;8.182;2022-08-14T02:09:33;7.63;;;6.70;;
31770;SDS011;18343;50.152;8.182;2022-08-14T02:12:04;7.35;;;6.28;;
31770;SDS011;18343;50.152;8.182;2022-08-14T02:14:36;7.97;;;7.07;;
31770;SDS011;18343;50.152;8.182;2022-08-14T02:17:04;7.10;;;6.40;;
31770;SDS011;18343;50.152;8.182;2022-08-14T02:19:34;9.23;;;6.97;;
31770;SDS011;18343;50.152;8.182;2022-08-14T02:22:01;7.15;;;6.45;;
31770;SDS011;18343;50.152;8.182;2022-08-14T02:24:28;8.15;;;6.40;;
31770;SDS011;18343;50.152;8.182;2022-08-14T02:26:55;7.80;;;7.00;;
31770;SDS011;18343;50.152;8.182;2022-08-14T02:29:24;10.02;;;6.57;;
31770;SDS011;18343;50.152;8.182;2022-08-14T02:31:55;8.07;;;7.00;;
31770;SDS011;18343;50.152;8.182;2022-08-14T02:34:26;7.35;;;6.57;;
31770;SDS011;18343;50.152;8.182;2022-08-14T02:36:57;8.15;;;6.82;;
31770;SDS011;18343;50.152;8.182;2022-08-14T02:39:27;7.82;;;6.88;;
31770;SDS011;18343;50.152;8.182;2022-08-14T02:41:54;13.23;;;7.15;;
31770;SDS011;18343;50.152;8.182;2022-08-14T02:44:22;10.80;;;7.53;;
31770;SDS011;18343;50.152;8.182;2022-08-14T02:46:49;7.40;;;6.65;;
31770;SDS011;18343;50.152;8.182;2022-08-14T02:49:20;8.85;;;7.50;;
31770;SDS011;18343;50.152;8.182;2022-08-14T02:51:50;7.68;;;6.65;;
31770;SDS011;18343;50.152;8.182;2022-08-14T02:54:18;8.80;;;6.65;;
31770;SDS011;18343;50.152;8.182;2022-08-14T02:56:47;7.85;;;6.70;;
31770;SDS011;18343;50.152;8.182;2022-08-14T02:59:14;7.03;;;6.38;;
31770;SDS011;18343;50.152;8.182;2022-08-14T03:01:43;9.07;;;6.63;;
31770;SDS011;18343;50.152;8.182;2022-08-14T03:04:10;10.63;;;7.28;;
31770;SDS011;18343;50.152;8.182;2022-08-14T03:06:38;10.13;;;7.13;;
31770;SDS011;18343;50.152;8.182;2022-08-14T03:09:08;8.10;;;6.95;;
31770;SDS011;18343;50.152;8.182;2022-08-14T03:11:36;8.25;;;6.57;;
31770;SDS011;18343;50.152;8.182;2022-08-14T03:14:04;7.47;;;6.80;;
31770;SDS011;18343;50.152;8.182;2022-08-14T03:16:31;8.45;;;7.13;;
31770;SDS011;18343;50.152;8.182;2022-08-14T03:19:00;7.03;;;6.43;;
31770;SDS011;18343;50.152;8.182;2022-08-14T03:21:31;9.20;;;6.95;;
31770;SDS011;18343;50.152;8.182;2022-08-14T03:24:00;8.65;;;6.63;;
31770;SDS011;18343;50.152;8.182;2022-08-14T03:26:34;8.07;;;6.93;;
31770;SDS011;18343;50.152;8.182;2022-08-14T03:29:03;7.75;;;7.05;;
31770;SDS011;18343;50.152;8.182;2022-08-14T03:31:31;10.80;;;7.60;;
31770;SDS011;18343;50.152;8.182;2022-08-14T03:34:00;7.95;;;7.15;;
31770;SDS011;18343;50.152;8.182;2022-08-14T03:36:28;9.13;;;7.28;;
31770;SDS011;18343;50.152;8.182;2022-08-14T03:38:56;8.02;;;7.22;;
31770;SDS011;18343;50.152;8.182;2022-08-14T03:41:27;8.65;;;7.03;;
31770;SDS011;18343;50.152;8.182;2022-08-14T03:43:56;7.88;;;7.10;;
31770;SDS011;18343;50.152;8.182;2022-08-14T03:46:26;10.25;;;6.80;;
31770;SDS011;18343;50.152;8.182;2022-08-14T03:48:55;14.38;;;8.18;;
31770;SDS011;18343;50.152;8.182;2022-08-14T03:51:23;7.90;;;7.20;;
31770;SDS011;18343;50.152;8.182;2022-08-14T03:53:53;8.60;;;7.65;;
31770;SDS011;18343;50.152;8.182;2022-08-14T03:56:22;7.90;;;7.10;;
31770;SDS011;18343;50.152;8.182;2022-08-14T03:58:51;8.13;;;7.20;;
31770;SDS011;18343;50.152;8.182;2022-08-14T04:01:25;7.70;;;6.85;;
31770;SDS011;18343;50.152;8.182;2022-08-14T04:03:54;10.45;;;7.03;;
31770;SDS011;18343;50.152;8.182;2022-08-14T04:06:30;8.68;;;7.35;;
31770;SDS011;18343;50.152;8.182;2022-08-14T04:08:58;12.30;;;7.53;;
31770;SDS011;18343;50.152;8.182;2022-08-14T04:11:25;9.18;;;7.38;;
31770;SDS011;18343;50.152;8.182;2022-08-14T04:13:53;8.73;;;7.63;;
31770;SDS011;18343;50.152;8.182;2022-08-14T04:16:20;7.78;;;7.00;;
31770;SDS011;18343;50.152;8.182;2022-08-14T04:18:48;7.97;;;7.15;;
31770;SDS011;18343;50.152;8.182;2022-08-14T04:21:18;12.68;;;7.30;;
31770;SDS011;18343;50.152;8.182;2022-08-14T04:23:47;11.05;;;7.40;;
31770;SDS011;18343;50.152;8.182;2022-08-14T04:26:15;8.25;;;6.75;;
31770;SDS011;18343;50.152;8.182;2022-08-14T04:28:43;8.73;;;7.18;;
31770;SDS011;18343;50.152;8.182;2022-08-14T04:31:11;10.07;;;7.90;;
31770;SDS011;18343;50.152;8.182;2022-08-14T04:33:38;13.20;;;9.65;;
31770;SDS011;18343;50.152;8.182;2022-08-14T04:36:07;12.75;;;8.65;;
31770;SDS011;18343;50.152;8.182;2022-08-14T04:38:34;12.13;;;8.27;;
31770;SDS011;18343;50.152;8.182;2022-08-14T04:41:19;12.13;;;8.27;;
31770;SDS011;18343;50.152;8.182;2022-08-14T04:44:03;11.90;;;8.20;;
31770;SDS011;18343;50.152;8.182;2022-08-14T04:46:32;9.73;;;8.73;;
31770;SDS011;18343;50.152;8.182;2022-08-14T04:49:03;8.45;;;7.57;;
31770;SDS011;18343;50.152;8.182;2022-08-14T04:51:30;14.35;;;8.18;;
31770;SDS011;18343;50.152;8.182;2022-08-14T04:53:57;8.88;;;7.97;;
31770;SDS011;18343;50.152;8.182;2022-08-14T04:56:26;12.90;;;7.43;;
31770;SDS011;18343;50.152;8.182;2022-08-14T04:58:54;8.20;;;7.40;;
31770;SDS011;18343;50.152;8.182;2022-08-14T05:01:29;9.18;;;8.23;;
31770;SDS011;18343;50.152;8.182;2022-08-14T05:03:56;8.57;;;7.68;;
31770;SDS011;18343;50.152;8.182;2022-08-14T05:06:23;11.18;;;7.45;;
31770;SDS011;18343;50.152;8.182;2022-08-14T05:08:49;8.82;;;7.75;;
31770;SDS011;18343;50.152;8.182;2022-08-14T05:11:17;9.98;;;8.32;;
31770;SDS011;18343;50.152;8.182;2022-08-14T05:13:44;8.55;;;7.32;;
31770;SDS011;18343;50.152;8.182;2022-08-14T05:16:12;8.43;;;7.55;;
31770;SDS011;18343;50.152;8.182;2022-08-14T05:18:40;9.00;;;7.78;;
31770;SDS011;18343;50.152;8.182;2022-08-14T05:21:11;8.73;;;7.93;;
31770;SDS011;18343;50.152;8.182;2022-08-14T05:23:38;9.27;;;8.38;;
31770;SDS011;18343;50.152;8.182;2022-08-14T05:26:05;10.40;;;8.25;;
31770;SDS011;18343;50.152;8.182;2022-08-14T05:28:39;9.20;;;8.30;;
31770;SDS011;18343;50.152;8.182;2022-08-14T05:31:10;11.98;;;8.13;;
31770;SDS011;18343;50.152;8.182;2022-08-14T05:33:42;9.43;;;8.38;;
31770;SDS011;18343;50.152;8.182;2022-08-14T05:36:11;8.77;;;7.97;;
31770;SDS011;18343;50.152;8.182;2022-08-14T05:38:39;11.77;;;8.30;;
31770;SDS011;18343;50.152;8.182;2022-08-14T05:41:09;9.68;;;8.70;;
31770;SDS011;18343;50.152;8.182;2022-08-14T05:43:39;12.02;;;8.00;;
31770;SDS011;18343;50.152;8.182;2022-08-14T05:46:09;10.85;;;8.98;;
31770;SDS011;18343;50.152;8.182;2022-08-14T05:48:37;10.48;;;8.02;;
31770;SDS011;18343;50.152;8.182;2022-08-14T05:51:06;11.40;;;8.93;;
31770;SDS011;18343;50.152;8.182;2022-08-14T05:53:34;9.13;;;8.32;;
31770;SDS011;18343;50.152;8.182;2022-08-14T05:56:01;12.32;;;8.50;;
31770;SDS011;18343;50.152;8.182;2022-08-14T05:58:28;9.73;;;8.65;;
31770;SDS011;18343;50.152;8.182;2022-08-14T06:00:55;9.93;;;8.93;;
31770;SDS011;18343;50.152;8.182;2022-08-14T06:03:22;11.15;;;8.32;;
31770;SDS011;18343;50.152;8.182;2022-08-14T06:05:51;9.48;;;8.57;;
31770;SDS011;18343;50.152;8.182;2022-08-14T06:08:21;9.27;;;8.10;;
31770;SDS011;18343;50.152;8.182;2022-08-14T06:10:51;9.88;;;8.70;;
31770;SDS011;18343;50.152;8.182;2022-08-14T06:13:19;9.73;;;8.15;;
31770;SDS011;18343;50.152;8.182;2022-08-14T06:15:47;11.68;;;8.82;;
31770;SDS011;18343;50.152;8.182;2022-08-14T06:18:17;11.32;;;8.55;;
31770;SDS011;18343;50.152;8.182;2022-08-14T06:20:46;10.00;;;8.88;;
31770;SDS011;18343;50.152;8.182;2022-08-14T06:23:13;11.95;;;9.30;;
31770;SDS011;18343;50.152;8.182;2022-08-14T06:25:40;11.10;;;9.00;;
31770;SDS011;18343;50.152;8.182;2022-08-14T06:28:14;11.73;;;9.23;;
31770;SDS011;18343;50.152;8.182;2022-08-14T06:30:42;10.07;;;8.90;;
31770;SDS011;18343;50.152;8.182;2022-08-14T06:33:09;10.73;;;8.30;;
31770;SDS011;18343;50.152;8.182;2022-08-14T06:35:37;10.90;;;8.80;;
31770;SDS011;18343;50.152;8.182;2022-08-14T06:38:04;9.48;;;8.48;;
31770;SDS011;18343;50.152;8.182;2022-08-14T06:40:33;11.15;;;8.77;;
31770;SDS011;18343;50.152;8.182;2022-08-14T06:43:02;10.07;;;9.07;;
31770;SDS011;18343;50.152;8.182;2022-08-14T06:45:34;10.48;;;8.48;;
31770;SDS011;18343;50.152;8.182;2022-08-14T06:48:11;11.18;;;8.43;;
31770;SDS011;18343;50.152;8.182;2022-08-14T06:50:39;9.52;;;8.52;;
31770;SDS011;18343;50.152;8.182;2022-08-14T06:53:06;9.73;;;8.40;;
31770;SDS011;18343;50.152;8.182;2022-08-14T06:55:33;9.15;;;7.93;;
31770;SDS011;18343;50.152;8.182;2022-08-14T06:58:02;11.02;;;8.85;;
31770;SDS011;18343;50.152;8.182;2022-08-14T07:00:30;9.35;;;8.45;;
31770;SDS011;18343;50.152;8.182;2022-08-14T07:02:57;9.65;;;8.35;;
31770;SDS011;18343;50.152;8.182;2022-08-14T07:05:42;12.10;;;8.70;;
31770;SDS011;18343;50.152;8.182;2022-08-14T07:08:12;10.30;;;8.90;;
31770;SDS011;18343;50.152;8.182;2022-08-14T07:10:41;11.40;;;8.75;;
31770;SDS011;18343;50.152;8.182;2022-08-14T07:13:09;9.60;;;8.70;;
31770;SDS011;18343;50.152;8.182;2022-08-14T07:15:38;9.52;;;8.63;;
31770;SDS011;18343;50.152;8.182;2022-08-14T07:18:06;8.77;;;7.88;;
31770;SDS011;18343;50.152;8.182;2022-08-14T07:20:34;9.32;;;8.45;;
31770;SDS011;18343;50.152;8.182;2022-08-14T07:23:02;8.88;;;7.97;;
31770;SDS011;18343;50.152;8.182;2022-08-14T07:25:32;10.15;;;7.97;;
31770;SDS011;18343;50.152;8.182;2022-08-14T07:28:00;8.73;;;7.60;;
31770;SDS011;18343;50.152;8.182;2022-08-14T07:30:34;9.13;;;8.23;;
31770;SDS011;18343;50.152;8.182;2022-08-14T07:33:03;9.98;;;8.00;;
31770;SDS011;18343;50.152;8.182;2022-08-14T07:35:33;10.73;;;9.05;;
31770;SDS011;18343;50.152;8.182;2022-08-14T07:38:01;9.45;;;8.55;;
31770;SDS011;18343;50.152;8.182;2022-08-14T07:40:28;11.38;;;8.35;;
31770;SDS011;18343;50.152;8.182;2022-08-14T07:42:55;9.73;;;8.32;;
31770;SDS011;18343;50.152;8.182;2022-08-14T07:45:22;9.15;;;8.25;;
31770;SDS011;18343;50.152;8.182;2022-08-14T07:47:49;11.43;;;8.30;;
31770;SDS011;18343;50.152;8.182;2022-08-14T07:50:17;9.63;;;8.75;;
31770;SDS011;18343;50.152;8.182;2022-08-14T07:52:45;10.00;;;8.38;;
31770;SDS011;18343;50.152;8.182;2022-08-14T07:55:14;8.65;;;7.75;;
31770;SDS011;18343;50.152;8.182;2022-08-14T07:57:44;9.30;;;8.30;;
31770;SDS011;18343;50.152;8.182;2022-08-14T08:00:15;12.10;;;8.57;;
31770;SDS011;18343;50.152;8.182;2022-08-14T08:02:44;10.98;;;7.90;;
31770;SDS011;18343;50.152;8.182;2022-08-14T08:05:14;9.25;;;7.95;;
31770;SDS011;18343;50.152;8.182;2022-08-14T08:07:45;9.65;;;8.65;;
31770;SDS011;18343;50.152;8.182;2022-08-14T08:10:14;9.90;;;8.90;;
31770;SDS011;18343;50.152;8.182;2022-08-14T08:13:01;8.73;;;7.93;;
31770;SDS011;18343;50.152;8.182;2022-08-14T08:15:32;9.38;;;7.97;;
31770;SDS011;18343;50.152;8.182;2022-08-14T08:18:01;8.93;;;7.97;;
31770;SDS011;18343;50.152;8.182;2022-08-14T08:20:34;11.27;;;7.68;;
31770;SDS011;18343;50.152;8.182;2022-08-14T08:23:03;8.97;;;7.93;;
31770;SDS011;18343;50.152;8.182;2022-08-14T08:25:33;8.40;;;7.60;;
31770;SDS011;18343;50.152;8.182;2022-08-14T08:28:02;8.63;;;7.82;;
31770;SDS011;18343;50.152;8.182;2022-08-14T08:30:33;8.32;;;7.53;;
31770;SDS011;18343;50.152;8.182;2022-08-14T08:33:03;8.82;;;7.93;;
31770;SDS011;18343;50.152;8.182;2022-08-14T08:35:33;8.77;;;7.85;;
31770;SDS011;18343;50.152;8.182;2022-08-14T08:38:04;8.93;;;8.02;;
31770;SDS011;18343;50.152;8.182;2022-08-14T08:40:35;9.38;;;8.15;;
31770;SDS011;18343;50.152;8.182;2022-08-14T08:43:04;9.05;;;8.18;;
31770;SDS011;18343;50.152;8.182;2022-08-14T08:45:34;10.68;;;7.85;;
31770;SDS011;18343;50.152;8.182;2022-08-14T08:48:01;9.25;;;7.22;;
31770;SDS011;18343;50.152;8.182;2022-08-14T08:50:33;9.23;;;7.40;;
31770;SDS011;18343;50.152;8.182;2022-08-14T08:53:03;8.60;;;7.70;;
31770;SDS011;18343;50.152;8.182;2022-08-14T08:55:32;8.45;;;7.65;;
31770;SDS011;18343;50.152;8.182;2022-08-14T08:58:03;9.98;;;7.50;;
31770;SDS011;18343;50.152;8.182;2022-08-14T09:00:35;8.45;;;7.65;;
31770;SDS011;18343;50.152;8.182;2022-08-14T09:03:04;9.25;;;7.28;;
31770;SDS011;18343;50.152;8.182;2022-08-14T09:05:34;7.97;;;7.25;;
31770;SDS011;18343;50.152;8.182;2022-08-14T09:08:10;7.88;;;7.10;;
31770;SDS011;18343;50.152;8.182;2022-08-14T09:10:39;7.97;;;7.22;;
31770;SDS011;18343;50.152;8.182;2022-08-14T09:13:06;8.18;;;6.93;;
31770;SDS011;18343;50.152;8.182;2022-08-14T09:15:38;7.20;;;6.47;;
31770;SDS011;18343;50.152;8.182;2022-08-14T09:18:07;8.63;;;6.47;;
31770;SDS011;18343;50.152;8.182;2022-08-14T09:20:36;6.80;;;6.20;;
31770;SDS011;18343;50.152;8.182;2022-08-14T09:23:05;8.23;;;6.43;;
31770;SDS011;18343;50.152;8.182;2022-08-14T09:25:32;7.47;;;6.70;;
31770;SDS011;18343;50.152;8.182;2022-08-14T09:28:01;7.70;;;6.38;;
31770;SDS011;18343;50.152;8.182;2022-08-14T09:30:29;7.13;;;6.43;;
31770;SDS011;18343;50.152;8.182;2022-08-14T09:33:01;9.38;;;6.68;;
31770;SDS011;18343;50.152;8.182;2022-08-14T09:35:56;9.15;;;7.13;;
31770;SDS011;18343;50.152;8.182;2022-08-14T09:39:09;7.78;;;7.07;;
31770;SDS011;18343;50.152;8.182;2022-08-14T09:41:58;7.50;;;6.80;;
31770;SDS011;18343;50.152;8.182;2022-08-14T09:44:46;7.03;;;6.32;;
31770;SDS011;18343;50.152;8.182;2022-08-14T09:47:38;6.82;;;5.95;;
31770;SDS011;18343;50.152;8.182;2022-08-14T09:50:24;7.40;;;6.70;;
31770;SDS011;18343;50.152;8.182;2022-08-14T09:52:56;6.25;;;5.65;;
31770;SDS011;18343;50.152;8.182;2022-08-14T09:55:26;6.75;;;5.75;;
31770;SDS011;18343;50.152;8.182;2022-08-14T09:58:08;8.75;;;5.38;;
31770;SDS011;18343;50.152;8.182;2022-08-14T10:00:42;6.20;;;5.43;;
31770;SDS011;18343;50.152;8.182;2022-08-14T10:03:24;8.50;;;5.53;;
31770;SDS011;18343;50.152;8.182;2022-08-14T10:06:07;6.00;;;5.40;;
31770;SDS011;18343;50.152;8.182;2022-08-14T10:08:41;5.60;;;5.10;;
31770;SDS011;18343;50.152;8.182;2022-08-14T10:11:12;5.45;;;4.95;;
31770;SDS011;18343;50.152;8.182;2022-08-14T10:13:46;5.55;;;5.05;;
31770;SDS011;18343;50.152;8.182;2022-08-14T10:16:13;6.85;;;5.32;;
31770;SDS011;18343;50.152;8.182;2022-08-14T10:18:45;5.18;;;4.68;;
31770;SDS011;18343;50.152;8.182;2022-08-14T10:21:29;6.47;;;5.03;;
31770;SDS011;18343;50.152;8.182;2022-08-14T10:23:57;7.68;;;5.65;;
31770;SDS011;18343;50.152;8.182;2022-08-14T10:26:24;5.30;;;4.80;;
31770;SDS011;18343;50.152;8.182;2022-08-14T10:28:51;8.25;;;5.38;;
31770;SDS011;18343;50.152;8.182;2022-08-14T10:31:21;5.47;;;4.95;;
31770;SDS011;18343;50.152;8.182;2022-08-14T10:34:03;10.98;;;6.40;;
31770;SDS011;18343;50.152;8.182;2022-08-14T10:36:33;7.70;;;6.00;;
31770;SDS011;18343;50.152;8.182;2022-08-14T10:39:04;7.78;;;5.30;;
31770;SDS011;18343;50.152;8.182;2022-08-14T10:41:41;8.35;;;6.20;;
31770;SDS011;18343;50.152;8.182;2022-08-14T10:44:11;8.68;;;5.43;;
31770;SDS011;18343;50.152;8.182;2022-08-14T10:46:42;9.40;;;5.75;;
31770;SDS011;18343;50.152;8.182;2022-08-14T10:49:16;7.00;;;5.35;;
31770;SDS011;18343;50.152;8.182;2022-08-14T10:51:54;10.70;;;5.22;;
31770;SDS011;18343;50.152;8.182;2022-08-14T10:54:31;6.35;;;4.88;;
31770;SDS011;18343;50.152;8.182;2022-08-14T10:57:10;7.03;;;5.43;;
31770;SDS011;18343;50.152;8.182;2022-08-14T10:59:47;6.13;;;5.53;;
31770;SDS011;18343;50.152;8.182;2022-08-14T11:02:27;6.07;;;5.40;;
31770;SDS011;18343;50.152;8.182;2022-08-14T11:05:01;11.32;;;5.88;;
31770;SDS011;18343;50.152;8.182;2022-08-14T11:07:33;6.85;;;5.35;;
31770;SDS011;18343;50.152;8.182;2022-08-14T11:10:04;7.22;;;5.97;;
31770;SDS011;18343;50.152;8.182;2022-08-14T11:12:43;7.38;;;6.07;;
31770;SDS011;18343;50.152;8.182;2022-08-14T11:15:13;8.25;;;5.10;;
31770;SDS011;18343;50.152;8.182;2022-08-14T11:17:42;7.10;;;5.35;;
31770;SDS011;18343;50.152;8.182;2022-08-14T11:20:12;7.93;;;6.07;;
31770;SDS011;18343;50.152;8.182;2022-08-14T11:22:40;5.70;;;5.20;;
31770;SDS011;18343;50.152;8.182;2022-08-14T11:25:10;7.45;;;5.70;;
31770;SDS011;18343;50.152;8.182;2022-08-14T11:27:39;13.25;;;5.97;;
31770;SDS011;18343;50.152;8.182;2022-08-14T11:30:09;8.23;;;5.50;;
31770;SDS011;18343;50.152;8.182;2022-08-14T11:32:40;8.98;;;5.95;;
31770;SDS011;18343;50.152;8.182;2022-08-14T11:35:13;11.63;;;5.65;;
31770;SDS011;18343;50.152;8.182;2022-08-14T11:37:50;6.85;;;5.55;;
31770;SDS011;18343;50.152;8.182;2022-08-14T11:40:19;5.95;;;4.68;;
31770;SDS011;18343;50.152;8.182;2022-08-14T11:42:48;6.32;;;4.85;;
31770;SDS011;18343;50.152;8.182;2022-08-14T11:45:21;8.38;;;5.20;;
31770;SDS011;18343;50.152;8.182;2022-08-14T11:47:49;4.75;;;4.10;;
31770;SDS011;18343;50.152;8.182;2022-08-14T11:50:17;5.25;;;4.60;;
31770;SDS011;18343;50.152;8.182;2022-08-14T11:52:47;5.20;;;4.70;;
31770;SDS011;18343;50.152;8.182;2022-08-14T11:55:17;5.78;;;4.95;;
31770;SDS011;18343;50.152;8.182;2022-08-14T11:57:45;4.85;;;4.40;;
31770;SDS011;18343;50.152;8.182;2022-08-14T12:00:23;5.28;;;4.57;;
31770;SDS011;18343;50.152;8.182;2022-08-14T12:02:54;5.00;;;4.47;;
31770;SDS011;18343;50.152;8.182;2022-08-14T12:05:30;5.50;;;4.53;;
31770;SDS011;18343;50.152;8.182;2022-08-14T12:08:01;5.65;;;5.05;;
31770;SDS011;18343;50.152;8.182;2022-08-14T12:10:32;6.93;;;5.35;;
31770;SDS011;18343;50.152;8.182;2022-08-14T12:13:09;7.22;;;4.72;;
31770;SDS011;18343;50.152;8.182;2022-08-14T12:15:43;5.55;;;4.82;;
31770;SDS011;18343;50.152;8.182;2022-08-14T12:18:27;5.68;;;5.18;;
31770;SDS011;18343;50.152;8.182;2022-08-14T12:20:57;6.53;;;5.18;;
31770;SDS011;18343;50.152;8.182;2022-08-14T12:23:24;8.70;;;4.72;;
31770;SDS011;18343;50.152;8.182;2022-08-14T12:26:01;6.25;;;5.60;;
31770;SDS011;18343;50.152;8.182;2022-08-14T12:28:29;6.68;;;4.80;;
31770;SDS011;18343;50.152;8.182;2022-08-14T12:30:57;7.13;;;5.53;;
31770;SDS011;18343;50.152;8.182;2022-08-14T12:33:25;7.75;;;5.40;;
31770;SDS011;18343;50.152;8.182;2022-08-14T12:35:54;6.55;;;5.70;;
31770;SDS011;18343;50.152;8.182;2022-08-14T12:38:32;5.90;;;5.30;;
31770;SDS011;18343;50.152;8.182;2022-08-14T12:41:03;5.40;;;4.90;;
31770;SDS011;18343;50.152;8.182;2022-08-14T12:43:45;6.00;;;5.35;;
31770;SDS011;18343;50.152;8.182;2022-08-14T12:46:26;8.02;;;5.88;;
31770;SDS011;18343;50.152;8.182;2022-08-14T12:48:55;5.90;;;5.40;;
31770;SDS011;18343;50.152;8.182;2022-08-14T12:51:25;5.80;;;5.18;;
31770;SDS011;18343;50.152;8.182;2022-08-14T12:53:54;7.57;;;5.90;;
31770;SDS011;18343;50.152;8.182;2022-08-14T12:56:23;5.72;;;5.18;;
31770;SDS011;18343;50.152;8.182;2022-08-14T12:58:50;6.53;;;5.45;;
31770;SDS011;18343;50.152;8.182;2022-08-14T13:01:24;6.55;;;5.95;;
31770;SDS011;18343;50.152;8.182;2022-08-14T13:04:02;6.25;;;5.65;;
31770;SDS011;18343;50.152;8.182;2022-08-14T13:06:32;6.57;;;5.97;;
31770;SDS011;18343;50.152;8.182;2022-08-14T13:09:01;6.32;;;5.70;;
31770;SDS011;18343;50.152;8.182;2022-08-14T13:11:36;6.95;;;6.20;;
31770;SDS011;18343;50.152;8.182;2022-08-14T13:14:08;9.50;;;5.03;;
31770;SDS011;18343;50.152;8.182;2022-08-14T13:16:38;6.75;;;5.60;;
31770;SDS011;18343;50.152;8.182;2022-08-14T13:19:10;10.15;;;5.38;;
31770;SDS011;18343;50.152;8.182;2022-08-14T13:21:42;5.80;;;4.95;;
31770;SDS011;18343;50.152;8.182;2022-08-14T13:24:10;5.85;;;5.25;;
31770;SDS011;18343;50.152;8.182;2022-08-14T13:26:42;8.70;;;5.35;;
31770;SDS011;18343;50.152;8.182;2022-08-14T13:29:12;5.97;;;5.10;;
31770;SDS011;18343;50.152;8.182;2022-08-14T13:31:43;5.93;;;5.07;;
31770;SDS011;18343;50.152;8.182;2022-08-14T13:34:15;8.30;;;6.38;;
31770;SDS011;18343;50.152;8.182;2022-08-14T13:36:44;6.45;;;5.78;;
31770;SDS011;18343;50.152;8.182;2022-08-14T13:39:13;7.50;;;5.90;;
31770;SDS011;18343;50.152;8.182;2022-08-14T13:41:42;6.20;;;5.47;;
31770;SDS011;18343;50.152;8.182;2022-08-14T13:44:11;7.93;;;5.60;;
31770;SDS011;18343;50.152;8.182;2022-08-14T13:46:39;8.65;;;5.65;;
31770;SDS011;18343;50.152;8.182;2022-08-14T13:49:09;9.27;;;6.20;;
31770;SDS011;18343;50.152;8.182;2022-08-14T13:51:38;6.78;;;5.65;;
31770;SDS011;18343;50.152;8.182;2022-08-14T13:54:11;6.90;;;5.60;;
31770;SDS011;18343;50.152;8.182;2022-08-14T13:56:43;7.97;;;5.60;;
31770;SDS011;18343;50.152;8.182;2022-08-14T13:59:11;9.35;;;6.05;;
31770;SDS011;18343;50.152;8.182;2022-08-14T14:01:39;7.90;;;6.28;;
31770;SDS011;18343;50.152;8.182;2022-08-14T14:04:13;5.55;;;4.78;;
31770;SDS011;18343;50.152;8.182;2022-08-14T14:09:10;6.88;;;5.30;;
31770;SDS011;18343;50.152;8.182;2022-08-14T14:11:46;8.80;;;5.60;;
31770;SDS011;18343;50.152;8.182;2022-08-14T14:14:13;9.63;;;5.50;;
31770;SDS011;18343;50.152;8.182;2022-08-14T14:16:41;11.27;;;6.00;;
31770;SDS011;18343;50.152;8.182;2022-08-14T14:19:11;7.20;;;5.47;;
31770;SDS011;18343;50.152;8.182;2022-08-14T14:21:43;6.85;;;5.85;;
31770;SDS011;18343;50.152;8.182;2022-08-14T14:24:13;7.03;;;5.80;;
31770;SDS011;18343;50.152;8.182;2022-08-14T14:26:44;7.40;;;5.55;;
31770;SDS011;18343;50.152;8.182;2022-08-14T14:29:14;8.05;;;6.30;;
31770;SDS011;18343;50.152;8.182;2022-08-14T14:31:44;8.45;;;6.20;;
31770;SDS011;18343;50.152;8.182;2022-08-14T14:34:13;8.35;;;6.05;;
31770;SDS011;18343;50.152;8.182;2022-08-14T14:36:43;7.55;;;5.70;;
31770;SDS011;18343;50.152;8.182;2022-08-14T14:39:10;7.25;;;6.20;;
31770;SDS011;18343;50.152;8.182;2022-08-14T14:41:39;14.52;;;6.30;;
31770;SDS011;18343;50.152;8.182;2022-08-14T14:44:09;8.85;;;6.35;;
31770;SDS011;18343;50.152;8.182;2022-08-14T14:46:39;11.95;;;6.82;;
31770;SDS011;18343;50.152;8.182;2022-08-14T14:49:13;7.88;;;5.95;;
31770;SDS011;18343;50.152;8.182;2022-08-14T14:51:43;11.90;;;6.85;;
31770;SDS011;18343;50.152;8.182;2022-08-14T14:54:10;8.10;;;6.55;;
31770;SDS011;18343;50.152;8.182;2022-08-14T14:56:38;11.07;;;7.93;;
31770;SDS011;18343;50.152;8.182;2022-08-14T14:59:06;9.73;;;7.30;;
31770;SDS011;18343;50.152;8.182;2022-08-14T15:01:34;12.85;;;6.80;;
31770;SDS011;18343;50.152;8.182;2022-08-14T15:04:02;8.52;;;6.45;;
31770;SDS011;18343;50.152;8.182;2022-08-14T15:06:32;11.32;;;6.63;;